sensor_id;sensor_type;location;lat;lon;timestamp;temperature;humidity
10294;DHT22;5192;50.328;7.610;2023-05-20T00:00:46;11.90;1.00
10294;DHT22;5192;50.328;7.610;2023-05-20T00:03:18;12.10;1.00
10294;DHT22;5192;50.328;7.610;2023-05-20T00:05:49;12.00;1.00
10294;DHT22;5192;50.328;7.610;2023-05-20T00:08:19;11.90;1.00
10294;DHT22;5192;50.328;7.610;2023-05-20T00:10:47;12.00;1.00
10294;DHT22;5192;50.328;7.610;2023-05-20T00:13:16;12.00;1.00
10294;DHT22;5192;50.328;7.610;2023-05-20T00:15:41;12.00;1.80
10294;DHT22;5192;50.328;7.610;2023-05-20T00:18:09;12.10;3.00
10294;DHT22;5192;50.328;7.610;2023-05-20T00:20:36;12.10;5.20
10294;DHT22;5192;50.328;7.610;2023-05-20T00:23:03;12.00;5.20
10294;DHT22;5192;50.328;7.610;2023-05-20T00:25:30;12.00;7.10
10294;DHT22;5192;50.328;7.610;2023-05-20T00:27:58;12.00;8.10
10294;DHT22;5192;50.328;7.610;2023-05-20T00:30:25;12.00;8.70
10294;DHT22;5192;50.328;7.610;2023-05-20T00:32:52;11.90;7.10
10294;DHT22;5192;50.328;7.610;2023-05-20T00:35:20;11.90;7.60
10294;DHT22;5192;50.328;7.610;2023-05-20T00:37:48;11.80;8.50
10294;DHT22;5192;50.328;7.610;2023-05-20T00:40:15;11.80;10.70
10294;DHT22;5192;50.328;7.610;2023-05-20T00:42:43;11.70;10.10
10294;DHT22;5192;50.328;7.610;2023-05-20T00:45:10;11.60;11.10
10294;DHT22;5192;50.328;7.610;2023-05-20T00:47:38;11.60;12.10
10294;DHT22;5192;50.328;7.610;2023-05-20T00:50:17;11.60;13.00
10294;DHT22;5192;50.328;7.610;2023-05-20T00:52:44;11.60;13.80
10294;DHT22;5192;50.328;7.610;2023-05-20T00:55:14;11.50;11.80
10294;DHT22;5192;50.328;7.610;2023-05-20T00:57:41;11.50;13.00
10294;DHT22;5192;50.328;7.610;2023-05-20T01:00:10;11.50;13.30
10294;DHT22;5192;50.328;7.610;2023-05-20T01:02:38;11.50;14.10
10294;DHT22;5192;50.328;7.610;2023-05-20T01:05:06;11.30;14.70
10294;DHT22;5192;50.328;7.610;2023-05-20T01:07:32;11.50;14.30
10294;DHT22;5192;50.328;7.610;2023-05-20T01:09:59;11.50;15.40
10294;DHT22;5192;50.328;7.610;2023-05-20T01:12:29;11.50;16.60
10294;DHT22;5192;50.328;7.610;2023-05-20T01:15:14;11.50;16.60
10294;DHT22;5192;50.328;7.610;2023-05-20T01:17:51;11.50;17.00
10294;DHT22;5192;50.328;7.610;2023-05-20T01:20:23;11.50;16.90
10294;DHT22;5192;50.328;7.610;2023-05-20T01:22:55;11.50;17.30
10294;DHT22;5192;50.328;7.610;2023-05-20T01:25:24;11.50;17.20
10294;DHT22;5192;50.328;7.610;2023-05-20T01:27:53;11.50;17.60
10294;DHT22;5192;50.328;7.610;2023-05-20T01:30:21;11.40;16.90
10294;DHT22;5192;50.328;7.610;2023-05-20T01:32:50;11.50;16.30
10294;DHT22;5192;50.328;7.610;2023-05-20T01:35:17;11.50;14.40
10294;DHT22;5192;50.328;7.610;2023-05-20T01:37:49;11.50;14.80
10294;DHT22;5192;50.328;7.610;2023-05-20T01:40:20;11.40;14.80
10294;DHT22;5192;50.328;7.610;2023-05-20T01:42:47;11.40;15.10
10294;DHT22;5192;50.328;7.610;2023-05-20T01:45:18;11.50;15.30
10294;DHT22;5192;50.328;7.610;2023-05-20T01:47:45;11.40;16.40
10294;DHT22;5192;50.328;7.610;2023-05-20T01:50:14;11.30;16.60
10294;DHT22;5192;50.328;7.610;2023-05-20T01:52:40;11.40;17.10
10294;DHT22;5192;50.328;7.610;2023-05-20T01:55:08;11.40;17.70
10294;DHT22;5192;50.328;7.610;2023-05-20T01:57:36;11.40;17.00
10294;DHT22;5192;50.328;7.610;2023-05-20T02:00:02;11.50;17.80
10294;DHT22;5192;50.328;7.610;2023-05-20T02:02:30;11.30;19.30
10294;DHT22;5192;50.328;7.610;2023-05-20T02:04:58;11.30;18.40
10294;DHT22;5192;50.328;7.610;2023-05-20T02:07:23;11.30;19.80
10294;DHT22;5192;50.328;7.610;2023-05-20T02:09:49;11.30;20.50
10294;DHT22;5192;50.328;7.610;2023-05-20T02:12:16;11.40;21.20
10294;DHT22;5192;50.328;7.610;2023-05-20T02:14:44;11.30;20.90
10294;DHT22;5192;50.328;7.610;2023-05-20T02:17:12;11.20;21.30
10294;DHT22;5192;50.328;7.610;2023-05-20T02:19:45;11.40;21.00
10294;DHT22;5192;50.328;7.610;2023-05-20T02:22:22;11.40;20.70
10294;DHT22;5192;50.328;7.610;2023-05-20T02:24:49;11.40;20.80
10294;DHT22;5192;50.328;7.610;2023-05-20T02:27:17;11.40;20.10
10294;DHT22;5192;50.328;7.610;2023-05-20T02:29:46;11.50;19.10
10294;DHT22;5192;50.328;7.610;2023-05-20T02:32:12;11.40;20.70
10294;DHT22;5192;50.328;7.610;2023-05-20T02:34:40;11.40;20.20
10294;DHT22;5192;50.328;7.610;2023-05-20T02:37:06;11.50;18.10
10294;DHT22;5192;50.328;7.610;2023-05-20T02:39:33;11.50;19.30
10294;DHT22;5192;50.328;7.610;2023-05-20T02:42:00;11.50;20.10
10294;DHT22;5192;50.328;7.610;2023-05-20T02:44:26;11.60;19.50
10294;DHT22;5192;50.328;7.610;2023-05-20T02:46:53;11.60;16.90
10294;DHT22;5192;50.328;7.610;2023-05-20T02:49:21;11.50;18.40
10294;DHT22;5192;50.328;7.610;2023-05-20T02:51:49;11.60;19.90
10294;DHT22;5192;50.328;7.610;2023-05-20T02:54:17;11.60;20.00
10294;DHT22;5192;50.328;7.610;2023-05-20T02:56:44;11.50;20.30
10294;DHT22;5192;50.328;7.610;2023-05-20T02:59:12;11.60;19.70
10294;DHT22;5192;50.328;7.610;2023-05-20T03:01:39;11.60;21.10
10294;DHT22;5192;50.328;7.610;2023-05-20T03:04:07;11.60;19.80
10294;DHT22;5192;50.328;7.610;2023-05-20T03:06:35;11.60;20.60
10294;DHT22;5192;50.328;7.610;2023-05-20T03:09:05;11.60;20.10
10294;DHT22;5192;50.328;7.610;2023-05-20T03:11:37;11.60;19.30
10294;DHT22;5192;50.328;7.610;2023-05-20T03:14:02;11.60;20.20
10294;DHT22;5192;50.328;7.610;2023-05-20T03:16:29;11.60;20.40
10294;DHT22;5192;50.328;7.610;2023-05-20T03:18:57;11.60;21.00
10294;DHT22;5192;50.328;7.610;2023-05-20T03:21:24;11.60;21.10
10294;DHT22;5192;50.328;7.610;2023-05-20T03:23:54;11.70;20.70
10294;DHT22;5192;50.328;7.610;2023-05-20T03:26:23;11.50;21.50
10294;DHT22;5192;50.328;7.610;2023-05-20T03:28:52;11.60;20.70
10294;DHT22;5192;50.328;7.610;2023-05-20T03:31:19;11.60;19.70
10294;DHT22;5192;50.328;7.610;2023-05-20T03:33:46;11.60;20.10
10294;DHT22;5192;50.328;7.610;2023-05-20T03:36:13;11.60;19.50
10294;DHT22;5192;50.328;7.610;2023-05-20T03:38:40;11.60;19.40
10294;DHT22;5192;50.328;7.610;2023-05-20T03:41:05;11.60;17.80
10294;DHT22;5192;50.328;7.610;2023-05-20T03:43:32;11.60;17.90
10294;DHT22;5192;50.328;7.610;2023-05-20T03:45:59;11.60;18.10
10294;DHT22;5192;50.328;7.610;2023-05-20T03:48:27;11.60;18.20
10294;DHT22;5192;50.328;7.610;2023-05-20T03:50:55;11.70;19.50
10294;DHT22;5192;50.328;7.610;2023-05-20T03:53:22;11.50;20.40
10294;DHT22;5192;50.328;7.610;2023-05-20T03:55:48;11.60;21.10
10294;DHT22;5192;50.328;7.610;2023-05-20T03:58:15;11.60;21.90
10294;DHT22;5192;50.328;7.610;2023-05-20T04:00:42;11.80;21.30
10294;DHT22;5192;50.328;7.610;2023-05-20T04:03:09;11.60;20.10
10294;DHT22;5192;50.328;7.610;2023-05-20T04:05:37;11.60;19.50
10294;DHT22;5192;50.328;7.610;2023-05-20T04:08:05;11.70;18.90
10294;DHT22;5192;50.328;7.610;2023-05-20T04:10:32;11.70;20.40
10294;DHT22;5192;50.328;7.610;2023-05-20T04:12:58;11.80;21.70
10294;DHT22;5192;50.328;7.610;2023-05-20T04:15:25;11.70;19.10
10294;DHT22;5192;50.328;7.610;2023-05-20T04:17:51;11.70;18.20
10294;DHT22;5192;50.328;7.610;2023-05-20T04:20:18;11.60;18.50
10294;DHT22;5192;50.328;7.610;2023-05-20T04:22:46;11.60;17.50
10294;DHT22;5192;50.328;7.610;2023-05-20T04:25:12;11.70;18.30
10294;DHT22;5192;50.328;7.610;2023-05-20T04:27:39;11.70;17.60
10294;DHT22;5192;50.328;7.610;2023-05-20T04:30:06;11.70;17.90
10294;DHT22;5192;50.328;7.610;2023-05-20T04:32:34;11.70;18.20
10294;DHT22;5192;50.328;7.610;2023-05-20T04:35:02;11.70;19.30
10294;DHT22;5192;50.328;7.610;2023-05-20T04:37:32;11.70;18.40
10294;DHT22;5192;50.328;7.610;2023-05-20T04:40:00;11.70;18.80
10294;DHT22;5192;50.328;7.610;2023-05-20T04:42:29;11.80;19.20
10294;DHT22;5192;50.328;7.610;2023-05-20T04:44:56;11.80;18.10
10294;DHT22;5192;50.328;7.610;2023-05-20T04:47:25;11.70;19.20
10294;DHT22;5192;50.328;7.610;2023-05-20T04:49:51;11.70;18.70
10294;DHT22;5192;50.328;7.610;2023-05-20T04:52:18;11.70;18.10
10294;DHT22;5192;50.328;7.610;2023-05-20T04:54:45;11.70;19.20
10294;DHT22;5192;50.328;7.610;2023-05-20T04:57:12;11.60;19.20
10294;DHT22;5192;50.328;7.610;2023-05-20T04:59:40;11.60;18.80
10294;DHT22;5192;50.328;7.610;2023-05-20T05:02:07;11.70;19.90
10294;DHT22;5192;50.328;7.610;2023-05-20T05:04:34;11.70;20.20
10294;DHT22;5192;50.328;7.610;2023-05-20T05:07:02;11.80;21.60
10294;DHT22;5192;50.328;7.610;2023-05-20T05:09:31;11.90;22.10
10294;DHT22;5192;50.328;7.610;2023-05-20T05:11:59;11.90;21.30
10294;DHT22;5192;50.328;7.610;2023-05-20T05:14:25;11.90;18.90
10294;DHT22;5192;50.328;7.610;2023-05-20T05:16:51;12.00;19.30
10294;DHT22;5192;50.328;7.610;2023-05-20T05:19:18;12.10;20.10
10294;DHT22;5192;50.328;7.610;2023-05-20T05:21:46;12.10;19.10
10294;DHT22;5192;50.328;7.610;2023-05-20T05:24:14;12.10;18.50
10294;DHT22;5192;50.328;7.610;2023-05-20T05:26:42;12.10;19.10
10294;DHT22;5192;50.328;7.610;2023-05-20T05:29:07;12.20;20.70
10294;DHT22;5192;50.328;7.610;2023-05-20T05:31:34;12.20;17.80
10294;DHT22;5192;50.328;7.610;2023-05-20T05:34:03;12.20;16.90
10294;DHT22;5192;50.328;7.610;2023-05-20T05:36:32;12.20;17.30
10294;DHT22;5192;50.328;7.610;2023-05-20T05:38:59;12.20;19.20
10294;DHT22;5192;50.328;7.610;2023-05-20T05:41:27;12.30;20.80
10294;DHT22;5192;50.328;7.610;2023-05-20T05:43:54;12.40;20.00
10294;DHT22;5192;50.328;7.610;2023-05-20T05:46:22;12.40;18.80
10294;DHT22;5192;50.328;7.610;2023-05-20T05:48:49;12.50;18.60
10294;DHT22;5192;50.328;7.610;2023-05-20T05:51:17;12.50;14.40
10294;DHT22;5192;50.328;7.610;2023-05-20T05:53:45;12.60;15.30
10294;DHT22;5192;50.328;7.610;2023-05-20T05:56:13;12.70;15.50
10294;DHT22;5192;50.328;7.610;2023-05-20T05:58:39;12.80;15.20
10294;DHT22;5192;50.328;7.610;2023-05-20T06:01:05;13.00;14.30
10294;DHT22;5192;50.328;7.610;2023-05-20T06:03:33;12.90;14.50
10294;DHT22;5192;50.328;7.610;2023-05-20T06:06:00;13.00;14.30
10294;DHT22;5192;50.328;7.610;2023-05-20T06:08:27;13.10;13.80
10294;DHT22;5192;50.328;7.610;2023-05-20T06:10:52;13.10;15.60
10294;DHT22;5192;50.328;7.610;2023-05-20T06:13:20;13.30;15.50
10294;DHT22;5192;50.328;7.610;2023-05-20T06:15:51;13.20;12.50
10294;DHT22;5192;50.328;7.610;2023-05-20T06:18:20;13.10;11.90
10294;DHT22;5192;50.328;7.610;2023-05-20T06:20:52;13.10;12.20
10294;DHT22;5192;50.328;7.610;2023-05-20T06:23:20;13.10;11.60
10294;DHT22;5192;50.328;7.610;2023-05-20T06:25:47;13.10;12.30
10294;DHT22;5192;50.328;7.610;2023-05-20T06:28:14;13.10;13.00
10294;DHT22;5192;50.328;7.610;2023-05-20T06:30:40;13.10;12.40
10294;DHT22;5192;50.328;7.610;2023-05-20T06:33:08;13.20;13.70
10294;DHT22;5192;50.328;7.610;2023-05-20T06:35:35;13.30;13.20
10294;DHT22;5192;50.328;7.610;2023-05-20T06:38:02;13.40;14.10
10294;DHT22;5192;50.328;7.610;2023-05-20T06:40:29;13.60;13.90
10294;DHT22;5192;50.328;7.610;2023-05-20T06:42:56;13.60;12.80
10294;DHT22;5192;50.328;7.610;2023-05-20T06:45:25;13.60;9.60
10294;DHT22;5192;50.328;7.610;2023-05-20T06:47:53;13.70;11.60
10294;DHT22;5192;50.328;7.610;2023-05-20T06:50:20;13.80;8.70
10294;DHT22;5192;50.328;7.610;2023-05-20T06:52:48;13.90;8.30
10294;DHT22;5192;50.328;7.610;2023-05-20T06:55:15;14.00;11.30
10294;DHT22;5192;50.328;7.610;2023-05-20T06:57:43;14.10;9.00
10294;DHT22;5192;50.328;7.610;2023-05-20T07:00:10;14.30;9.90
10294;DHT22;5192;50.328;7.610;2023-05-20T07:02:40;14.30;9.00
10294;DHT22;5192;50.328;7.610;2023-05-20T07:05:07;14.30;6.90
10294;DHT22;5192;50.328;7.610;2023-05-20T07:07:35;14.30;6.70
10294;DHT22;5192;50.328;7.610;2023-05-20T07:10:04;14.40;7.20
10294;DHT22;5192;50.328;7.610;2023-05-20T07:12:32;14.50;8.40
10294;DHT22;5192;50.328;7.610;2023-05-20T07:15:00;14.60;6.30
10294;DHT22;5192;50.328;7.610;2023-05-20T07:17:28;14.60;5.90
10294;DHT22;5192;50.328;7.610;2023-05-20T07:19:55;14.80;6.90
10294;DHT22;5192;50.328;7.610;2023-05-20T07:22:23;14.90;8.30
10294;DHT22;5192;50.328;7.610;2023-05-20T07:24:49;14.90;7.10
10294;DHT22;5192;50.328;7.610;2023-05-20T07:27:16;15.00;7.80
10294;DHT22;5192;50.328;7.610;2023-05-20T07:29:43;15.10;7.20
10294;DHT22;5192;50.328;7.610;2023-05-20T07:32:09;15.10;8.20
10294;DHT22;5192;50.328;7.610;2023-05-20T07:34:36;15.20;9.50
10294;DHT22;5192;50.328;7.610;2023-05-20T07:37:04;15.20;9.00
10294;DHT22;5192;50.328;7.610;2023-05-20T07:39:32;15.20;6.20
10294;DHT22;5192;50.328;7.610;2023-05-20T07:42:00;15.30;9.50
10294;DHT22;5192;50.328;7.610;2023-05-20T07:44:27;15.40;6.20
10294;DHT22;5192;50.328;7.610;2023-05-20T07:46:56;15.50;6.80
10294;DHT22;5192;50.328;7.610;2023-05-20T07:49:23;15.60;5.10
10294;DHT22;5192;50.328;7.610;2023-05-20T07:51:50;15.70;4.20
10294;DHT22;5192;50.328;7.610;2023-05-20T07:54:17;15.80;7.20
10294;DHT22;5192;50.328;7.610;2023-05-20T07:56:45;15.80;4.30
10294;DHT22;5192;50.328;7.610;2023-05-20T07:59:14;15.90;4.30
10294;DHT22;5192;50.328;7.610;2023-05-20T08:01:40;16.00;5.50
10294;DHT22;5192;50.328;7.610;2023-05-20T08:04:08;16.00;2.80
10294;DHT22;5192;50.328;7.610;2023-05-20T08:06:35;16.20;3.70
10294;DHT22;5192;50.328;7.610;2023-05-20T08:09:03;16.30;4.80
10294;DHT22;5192;50.328;7.610;2023-05-20T08:11:30;16.50;3.70
10294;DHT22;5192;50.328;7.610;2023-05-20T08:13:56;16.70;1.00
10294;DHT22;5192;50.328;7.610;2023-05-20T08:16:23;16.80;1.00
10294;DHT22;5192;50.328;7.610;2023-05-20T08:18:50;16.90;1.00
10294;DHT22;5192;50.328;7.610;2023-05-20T08:21:20;16.90;1.00
10294;DHT22;5192;50.328;7.610;2023-05-20T08:23:48;17.00;1.00
10294;DHT22;5192;50.328;7.610;2023-05-20T08:26:16;17.10;1.00
10294;DHT22;5192;50.328;7.610;2023-05-20T08:28:43;17.20;1.00
10294;DHT22;5192;50.328;7.610;2023-05-20T08:31:09;17.30;1.00
10294;DHT22;5192;50.328;7.610;2023-05-20T08:33:35;17.40;1.00
10294;DHT22;5192;50.328;7.610;2023-05-20T08:36:02;17.40;1.00
10294;DHT22;5192;50.328;7.610;2023-05-20T08:38:30;17.70;1.00
10294;DHT22;5192;50.328;7.610;2023-05-20T08:40:58;17.90;1.00
10294;DHT22;5192;50.328;7.610;2023-05-20T08:43:26;17.90;1.00
10294;DHT22;5192;50.328;7.610;2023-05-20T08:45:52;17.90;1.00
10294;DHT22;5192;50.328;7.610;2023-05-20T08:48:23;17.70;1.00
10294;DHT22;5192;50.328;7.610;2023-05-20T08:50:52;17.90;1.00
10294;DHT22;5192;50.328;7.610;2023-05-20T08:53:22;17.90;1.00
10294;DHT22;5192;50.328;7.610;2023-05-20T08:56:01;17.80;1.00
10294;DHT22;5192;50.328;7.610;2023-05-20T08:58:31;17.70;1.00
10294;DHT22;5192;50.328;7.610;2023-05-20T09:00:58;17.90;1.00
10294;DHT22;5192;50.328;7.610;2023-05-20T09:03:27;18.00;1.00
10294;DHT22;5192;50.328;7.610;2023-05-20T09:06:07;18.10;1.00
10294;DHT22;5192;50.328;7.610;2023-05-20T09:08:34;18.10;1.00
10294;DHT22;5192;50.328;7.610;2023-05-20T09:11:01;18.00;1.00
10294;DHT22;5192;50.328;7.610;2023-05-20T09:13:31;18.10;1.00
10294;DHT22;5192;50.328;7.610;2023-05-20T09:16:04;18.00;1.00
10294;DHT22;5192;50.328;7.610;2023-05-20T09:18:31;17.90;1.00
10294;DHT22;5192;50.328;7.610;2023-05-20T09:21:04;18.10;1.00
10294;DHT22;5192;50.328;7.610;2023-05-20T09:23:32;18.10;1.00
10294;DHT22;5192;50.328;7.610;2023-05-20T09:26:02;18.00;1.00
10294;DHT22;5192;50.328;7.610;2023-05-20T09:28:37;18.00;1.00
10294;DHT22;5192;50.328;7.610;2023-05-20T09:31:05;17.90;1.00
10294;DHT22;5192;50.328;7.610;2023-05-20T09:33:37;18.00;1.00
10294;DHT22;5192;50.328;7.610;2023-05-20T09:36:09;18.10;1.00
10294;DHT22;5192;50.328;7.610;2023-05-20T09:38:40;18.20;1.00
10294;DHT22;5192;50.328;7.610;2023-05-20T09:41:10;18.30;1.00
10294;DHT22;5192;50.328;7.610;2023-05-20T09:43:38;18.20;1.00
10294;DHT22;5192;50.328;7.610;2023-05-20T09:46:07;18.30;1.00
10294;DHT22;5192;50.328;7.610;2023-05-20T09:48:38;18.50;1.00
10294;DHT22;5192;50.328;7.610;2023-05-20T09:51:06;18.60;1.00
10294;DHT22;5192;50.328;7.610;2023-05-20T09:53:33;18.80;1.00
10294;DHT22;5192;50.328;7.610;2023-05-20T09:55:59;19.00;1.00
10294;DHT22;5192;50.328;7.610;2023-05-20T09:58:26;18.80;1.00
10294;DHT22;5192;50.328;7.610;2023-05-20T10:00:56;19.00;1.00
10294;DHT22;5192;50.328;7.610;2023-05-20T10:03:23;19.10;1.00
10294;DHT22;5192;50.328;7.610;2023-05-20T10:09:23;19.30;1.00
10294;DHT22;5192;50.328;7.610;2023-05-20T10:12:26;19.50;1.00
10294;DHT22;5192;50.328;7.610;2023-05-20T10:15:29;19.40;1.00
10294;DHT22;5192;50.328;7.610;2023-05-20T10:20:57;19.70;1.00
10294;DHT22;5192;50.328;7.610;2023-05-20T10:23:29;19.70;1.00
10294;DHT22;5192;50.328;7.610;2023-05-20T10:25:58;19.70;1.00
10294;DHT22;5192;50.328;7.610;2023-05-20T10:28:33;19.90;1.00
10294;DHT22;5192;50.328;7.610;2023-05-20T10:31:24;20.00;1.00
10294;DHT22;5192;50.328;7.610;2023-05-20T10:33:54;20.10;1.00
10294;DHT22;5192;50.328;7.610;2023-05-20T10:36:28;20.10;1.00
10294;DHT22;5192;50.328;7.610;2023-05-20T10:39:01;20.10;1.00
10294;DHT22;5192;50.328;7.610;2023-05-20T10:41:31;20.10;1.00
10294;DHT22;5192;50.328;7.610;2023-05-20T10:44:04;20.20;1.00
10294;DHT22;5192;50.328;7.610;2023-05-20T10:46:35;20.30;1.00
10294;DHT22;5192;50.328;7.610;2023-05-20T10:49:03;20.50;1.00
10294;DHT22;5192;50.328;7.610;2023-05-20T10:51:38;20.50;1.00
10294;DHT22;5192;50.328;7.610;2023-05-20T10:54:04;20.30;1.00
10294;DHT22;5192;50.328;7.610;2023-05-20T10:56:31;20.20;1.00
10294;DHT22;5192;50.328;7.610;2023-05-20T10:58:57;19.90;1.00
10294;DHT22;5192;50.328;7.610;2023-05-20T11:01:27;20.00;1.00
10294;DHT22;5192;50.328;7.610;2023-05-20T11:03:56;20.00;1.00
10294;DHT22;5192;50.328;7.610;2023-05-20T11:06:26;19.90;1.00
10294;DHT22;5192;50.328;7.610;2023-05-20T11:08:55;19.90;1.00
10294;DHT22;5192;50.328;7.610;2023-05-20T11:11:33;19.90;1.00
10294;DHT22;5192;50.328;7.610;2023-05-20T11:14:02;20.00;1.00
10294;DHT22;5192;50.328;7.610;2023-05-20T11:16:29;19.90;1.00
10294;DHT22;5192;50.328;7.610;2023-05-20T11:18:54;19.80;1.00
10294;DHT22;5192;50.328;7.610;2023-05-20T11:21:23;19.80;1.00
10294;DHT22;5192;50.328;7.610;2023-05-20T11:23:50;19.80;1.00
10294;DHT22;5192;50.328;7.610;2023-05-20T11:26:27;19.80;1.00
10294;DHT22;5192;50.328;7.610;2023-05-20T11:28:56;19.80;1.00
10294;DHT22;5192;50.328;7.610;2023-05-20T11:31:23;19.90;1.00
10294;DHT22;5192;50.328;7.610;2023-05-20T11:33:51;19.70;1.00
10294;DHT22;5192;50.328;7.610;2023-05-20T11:36:17;19.70;1.00
10294;DHT22;5192;50.328;7.610;2023-05-20T11:38:45;19.60;1.00
10294;DHT22;5192;50.328;7.610;2023-05-20T11:41:14;19.40;1.00
10294;DHT22;5192;50.328;7.610;2023-05-20T11:43:42;19.30;1.00
10294;DHT22;5192;50.328;7.610;2023-05-20T11:46:09;19.20;1.00
10294;DHT22;5192;50.328;7.610;2023-05-20T11:48:38;19.00;1.00
10294;DHT22;5192;50.328;7.610;2023-05-20T11:51:11;18.90;1.00
10294;DHT22;5192;50.328;7.610;2023-05-20T11:53:41;18.90;1.00
10294;DHT22;5192;50.328;7.610;2023-05-20T11:56:07;18.90;1.00
10294;DHT22;5192;50.328;7.610;2023-05-20T11:58:33;19.10;1.00
10294;DHT22;5192;50.328;7.610;2023-05-20T12:01:00;19.10;1.00
10294;DHT22;5192;50.328;7.610;2023-05-20T12:03:27;19.30;1.00
10294;DHT22;5192;50.328;7.610;2023-05-20T12:05:53;19.40;1.00
10294;DHT22;5192;50.328;7.610;2023-05-20T12:08:20;19.60;1.00
10294;DHT22;5192;50.328;7.610;2023-05-20T12:10:49;19.60;1.00
10294;DHT22;5192;50.328;7.610;2023-05-20T12:13:17;19.80;1.00
10294;DHT22;5192;50.328;7.610;2023-05-20T12:15:45;19.80;1.00
10294;DHT22;5192;50.328;7.610;2023-05-20T12:18:13;19.70;1.00
10294;DHT22;5192;50.328;7.610;2023-05-20T12:20:41;19.60;1.00
10294;DHT22;5192;50.328;7.610;2023-05-20T12:23:09;19.40;1.00
10294;DHT22;5192;50.328;7.610;2023-05-20T12:25:36;19.20;1.00
10294;DHT22;5192;50.328;7.610;2023-05-20T12:28:02;19.30;1.00
10294;DHT22;5192;50.328;7.610;2023-05-20T12:30:30;19.30;1.00
10294;DHT22;5192;50.328;7.610;2023-05-20T12:32:57;19.40;1.00
10294;DHT22;5192;50.328;7.610;2023-05-20T12:35:40;19.60;1.00
10294;DHT22;5192;50.328;7.610;2023-05-20T12:38:13;19.80;1.00
10294;DHT22;5192;50.328;7.610;2023-05-20T12:40:40;20.10;1.00
10294;DHT22;5192;50.328;7.610;2023-05-20T12:43:07;20.30;1.00
10294;DHT22;5192;50.328;7.610;2023-05-20T12:45:34;20.30;1.00
10294;DHT22;5192;50.328;7.610;2023-05-20T12:48:03;20.20;1.00
10294;DHT22;5192;50.328;7.610;2023-05-20T12:50:31;20.30;1.00
10294;DHT22;5192;50.328;7.610;2023-05-20T12:52:59;20.60;1.00
10294;DHT22;5192;50.328;7.610;2023-05-20T12:55:27;20.80;1.00
10294;DHT22;5192;50.328;7.610;2023-05-20T12:57:56;21.00;1.00
10294;DHT22;5192;50.328;7.610;2023-05-20T13:00:24;21.20;1.00
10294;DHT22;5192;50.328;7.610;2023-05-20T13:02:51;21.20;1.00
10294;DHT22;5192;50.328;7.610;2023-05-20T13:05:18;21.10;1.00
10294;DHT22;5192;50.328;7.610;2023-05-20T13:07:46;21.10;1.00
10294;DHT22;5192;50.328;7.610;2023-05-20T13:10:16;20.70;1.00
10294;DHT22;5192;50.328;7.610;2023-05-20T13:12:43;20.60;1.00
10294;DHT22;5192;50.328;7.610;2023-05-20T13:15:13;20.50;1.00
10294;DHT22;5192;50.328;7.610;2023-05-20T13:17:41;20.60;1.00
10294;DHT22;5192;50.328;7.610;2023-05-20T13:20:12;21.10;1.00
10294;DHT22;5192;50.328;7.610;2023-05-20T13:22:40;21.30;1.00
10294;DHT22;5192;50.328;7.610;2023-05-20T13:25:06;21.50;1.00
10294;DHT22;5192;50.328;7.610;2023-05-20T13:27:35;21.80;1.00
10294;DHT22;5192;50.328;7.610;2023-05-20T13:30:02;22.10;1.00
10294;DHT22;5192;50.328;7.610;2023-05-20T13:32:28;22.20;1.00
10294;DHT22;5192;50.328;7.610;2023-05-20T13:34:55;22.30;1.00
10294;DHT22;5192;50.328;7.610;2023-05-20T13:37:22;22.40;1.00
10294;DHT22;5192;50.328;7.610;2023-05-20T13:39:51;22.50;1.00
10294;DHT22;5192;50.328;7.610;2023-05-20T13:42:20;22.40;1.00
10294;DHT22;5192;50.328;7.610;2023-05-20T13:44:49;22.30;1.00
10294;DHT22;5192;50.328;7.610;2023-05-20T13:47:18;22.00;1.00
10294;DHT22;5192;50.328;7.610;2023-05-20T13:49:46;21.90;1.00
10294;DHT22;5192;50.328;7.610;2023-05-20T13:52:13;21.80;1.00
10294;DHT22;5192;50.328;7.610;2023-05-20T13:54:40;21.80;1.00
10294;DHT22;5192;50.328;7.610;2023-05-20T13:57:08;21.80;1.00
10294;DHT22;5192;50.328;7.610;2023-05-20T13:59:36;21.70;1.00
10294;DHT22;5192;50.328;7.610;2023-05-20T14:02:03;21.40;1.00
10294;DHT22;5192;50.328;7.610;2023-05-20T14:04:30;21.30;1.00
10294;DHT22;5192;50.328;7.610;2023-05-20T14:06:56;21.10;1.00
10294;DHT22;5192;50.328;7.610;2023-05-20T14:09:26;20.90;1.00
10294;DHT22;5192;50.328;7.610;2023-05-20T14:11:54;20.70;1.00
10294;DHT22;5192;50.328;7.610;2023-05-20T14:14:21;20.50;1.00
10294;DHT22;5192;50.328;7.610;2023-05-20T14:16:48;20.50;1.00
10294;DHT22;5192;50.328;7.610;2023-05-20T14:19:15;20.40;1.00
10294;DHT22;5192;50.328;7.610;2023-05-20T14:21:43;20.50;1.00
10294;DHT22;5192;50.328;7.610;2023-05-20T14:24:12;20.60;1.00
10294;DHT22;5192;50.328;7.610;2023-05-20T14:26:39;20.50;1.00
10294;DHT22;5192;50.328;7.610;2023-05-20T14:29:08;20.40;1.00
10294;DHT22;5192;50.328;7.610;2023-05-20T14:31:36;20.30;1.00
10294;DHT22;5192;50.328;7.610;2023-05-20T14:34:04;20.20;1.00
10294;DHT22;5192;50.328;7.610;2023-05-20T14:36:30;20.10;1.00
10294;DHT22;5192;50.328;7.610;2023-05-20T14:38:57;20.20;1.00
10294;DHT22;5192;50.328;7.610;2023-05-20T14:41:25;20.20;1.00
10294;DHT22;5192;50.328;7.610;2023-05-20T14:43:52;20.30;1.00
10294;DHT22;5192;50.328;7.610;2023-05-20T14:46:20;20.40;1.00
10294;DHT22;5192;50.328;7.610;2023-05-20T14:48:47;20.50;1.00
10294;DHT22;5192;50.328;7.610;2023-05-20T14:51:15;20.50;1.00
10294;DHT22;5192;50.328;7.610;2023-05-20T14:53:42;20.40;1.00
10294;DHT22;5192;50.328;7.610;2023-05-20T14:56:09;20.40;1.00
10294;DHT22;5192;50.328;7.610;2023-05-20T14:58:38;20.30;1.00
10294;DHT22;5192;50.328;7.610;2023-05-20T15:01:07;20.10;1.00
10294;DHT22;5192;50.328;7.610;2023-05-20T15:03:35;19.90;1.00
10294;DHT22;5192;50.328;7.610;2023-05-20T15:06:01;19.80;1.00
10294;DHT22;5192;50.328;7.610;2023-05-20T15:08:28;19.70;1.00
10294;DHT22;5192;50.328;7.610;2023-05-20T15:10:54;19.50;1.00
10294;DHT22;5192;50.328;7.610;2023-05-20T15:13:22;19.60;1.00
10294;DHT22;5192;50.328;7.610;2023-05-20T15:15:49;19.70;1.00
10294;DHT22;5192;50.328;7.610;2023-05-20T15:18:16;19.70;1.00
10294;DHT22;5192;50.328;7.610;2023-05-20T15:20:43;19.80;1.00
10294;DHT22;5192;50.328;7.610;2023-05-20T15:23:10;20.10;1.00
10294;DHT22;5192;50.328;7.610;2023-05-20T15:25:38;20.70;1.00
10294;DHT22;5192;50.328;7.610;2023-05-20T15:28:05;21.10;1.00
10294;DHT22;5192;50.328;7.610;2023-05-20T15:30:31;21.20;1.00
10294;DHT22;5192;50.328;7.610;2023-05-20T15:32:57;21.20;1.00
10294;DHT22;5192;50.328;7.610;2023-05-20T15:35:24;21.40;1.00
10294;DHT22;5192;50.328;7.610;2023-05-20T15:37:51;22.30;1.00
10294;DHT22;5192;50.328;7.610;2023-05-20T15:40:16;23.20;1.00
10294;DHT22;5192;50.328;7.610;2023-05-20T15:42:43;23.70;1.00
10294;DHT22;5192;50.328;7.610;2023-05-20T15:45:10;24.60;1.00
10294;DHT22;5192;50.328;7.610;2023-05-20T15:47:37;24.40;1.00
10294;DHT22;5192;50.328;7.610;2023-05-20T15:50:06;24.00;1.00
10294;DHT22;5192;50.328;7.610;2023-05-20T15:52:33;23.70;1.00
10294;DHT22;5192;50.328;7.610;2023-05-20T15:54:59;23.20;1.00
10294;DHT22;5192;50.328;7.610;2023-05-20T15:57:26;22.60;1.00
10294;DHT22;5192;50.328;7.610;2023-05-20T15:59:56;21.90;1.00
10294;DHT22;5192;50.328;7.610;2023-05-20T16:02:23;21.40;1.00
10294;DHT22;5192;50.328;7.610;2023-05-20T16:04:55;21.10;1.00
10294;DHT22;5192;50.328;7.610;2023-05-20T16:07:21;21.00;1.00